Time;durP1;ratioP1;P1;durP2;ratioP2;P2;SDS_P1;SDS_P2;PMS_P1;PMS_P2;Temp;Humidity;BMP_temperature;BMP_pressure;BME280_temperature;BME280_humidity;BME280_pressure;Samples;Min_cycle;Max_cycle;Signal;HPM_P1;HPM_P2
2023/03/26 00:01:35;;;;;;;9.52;2.50;;;;;;;;;;4943105;29;20027;-77
2023/03/26 00:04:01;;;;;;;8.30;1.65;;;;;;;;;;4960882;29;20030;-78
2023/03/26 00:06:28;;;;;;;7.70;2.08;;;;;;;;;;4960326;29;20027;-78
2023/03/26 00:08:58;;;;;;;7.45;1.58;;;;;;;;;;4960649;28;20035;-78
2023/03/26 00:11:26;;;;;;;14.00;2.20;;;;;;;;;;4960693;29;20031;-78
2023/03/26 00:13:58;;;;;;;8.45;1.80;;;;;;;;;;4960733;29;20352;-78
2023/03/26 00:16:26;;;;;;;10.48;2.55;;;;;;;;;;4960490;29;20090;-78
2023/03/26 00:18:52;;;;;;;15.43;2.67;;;;;;;;;;4960426;29;20476;-78
2023/03/26 00:21:20;;;;;;;11.93;1.80;;;;;;;;;;4959999;29;20031;-78
2023/03/26 00:23:48;;;;;;;10.70;1.83;;;;;;;;;;4959969;29;20032;-78
2023/03/26 00:26:15;;;;;;;13.73;3.03;;;;;;;;;;4959834;29;20114;-78
2023/03/26 00:28:41;;;;;;;15.38;1.70;;;;;;;;;;4942603;29;20019;-78
2023/03/26 00:31:09;;;;;;;9.90;1.65;;;;;;;;;;4942750;29;20023;-78
2023/03/26 00:33:39;;;;;;;12.20;1.98;;;;;;;;;;4942698;29;20023;-78
2023/03/26 00:36:05;;;;;;;;;;;;;;;;;;4959577;29;20474;-78
2023/03/26 00:38:37;;;;;;;10.75;2.05;;;;;;;;;;4959597;28;19938;-78
2023/03/26 00:41:04;;;;;;;11.98;1.98;;;;;;;;;;4942043;29;20058;-78
2023/03/26 00:43:31;;;;;;;12.35;1.73;;;;;;;;;;4942534;29;20698;-78
2023/03/26 00:45:58;;;;;;;11.25;2.15;;;;;;;;;;4959045;29;20130;-78
2023/03/26 00:48:26;;;;;;;13.27;2.20;;;;;;;;;;4958828;29;20470;-78
2023/03/26 00:50:52;;;;;;;10.43;1.83;;;;;;;;;;4959359;29;20347;-78
2023/03/26 00:53:18;;;;;;;8.25;1.20;;;;;;;;;;4941862;29;20130;-78
2023/03/26 00:55:45;;;;;;;8.98;1.73;;;;;;;;;;4958951;29;20027;-78
2023/03/26 00:58:11;;;;;;;10.07;1.75;;;;;;;;;;4959006;29;20192;-78
2023/03/26 01:00:56;;;;;;;10.50;1.58;;;;;;;;;;4958943;29;20019;-78
2023/03/26 01:03:23;;;;;;;12.27;1.90;;;;;;;;;;4959286;28;20114;-78
2023/03/26 01:05:54;;;;;;;10.35;1.55;;;;;;;;;;4961308;29;20032;-78
2023/03/26 01:08:21;;;;;;;;;;;;;;;;;;4963338;28;20032;-78
2023/03/26 01:10:49;;;;;;;9.98;1.55;;;;;;;;;;4962129;29;19917;-78
2023/03/26 01:13:16;;;;;;;9.23;1.42;;;;;;;;;;4944483;29;20569;-78
2023/03/26 01:15:42;;;;;;;9.23;1.70;;;;;;;;;;4959701;29;20023;-78
2023/03/26 01:18:12;;;;;;;15.20;2.50;;;;;;;;;;4942490;29;20027;-78
2023/03/26 01:20:45;;;;;;;14.40;1.88;;;;;;;;;;4959506;29;20090;-78
2023/03/26 01:23:13;;;;;;;12.40;1.75;;;;;;;;;;4960225;29;20122;-78
2023/03/26 01:25:42;;;;;;;11.90;2.10;;;;;;;;;;4959122;29;20470;-78
2023/03/26 01:28:11;;;;;;;13.52;1.70;;;;;;;;;;4959569;29;20033;-78
2023/03/26 01:31:01;;;;;;;9.32;1.77;;;;;;;;;;4941727;29;20016;-78
2023/03/26 01:33:36;;;;;;;13.77;2.08;;;;;;;;;;4958571;28;20031;-78
2023/03/26 01:36:22;;;;;;;11.13;2.17;;;;;;;;;;4941067;29;20505;-78
2023/03/26 01:38:51;;;;;;;11.85;2.88;;;;;;;;;;4958806;29;20083;-78
2023/03/26 01:41:20;;;;;;;14.32;2.53;;;;;;;;;;4958589;29;20527;-78
2023/03/26 01:44:01;;;;;;;10.93;2.08;;;;;;;;;;4958914;29;20087;-78
2023/03/26 01:46:35;;;;;;;9.00;2.10;;;;;;;;;;4958373;29;20054;-78
2023/03/26 01:49:02;;;;;;;17.60;2.65;;;;;;;;;;4958840;29;20042;-78
2023/03/26 01:51:29;;;;;;;14.40;2.17;;;;;;;;;;4958240;28;20450;-78
2023/03/26 01:53:57;;;;;;;8.65;2.20;;;;;;;;;;4957438;29;20430;-78
2023/03/26 01:56:23;;;;;;;10.70;1.75;;;;;;;;;;4940794;29;20027;-78
2023/03/26 01:59:07;;;;;;;12.93;1.92;;;;;;;;;;4958326;29;20027;-78
2023/03/26 02:01:43;;;;;;;12.32;1.67;;;;;;;;;;4940358;29;20429;-78
2023/03/26 02:04:44;;;;;;;8.52;1.77;;;;;;;;;;4958017;29;20122;-78
2023/03/26 02:07:19;;;;;;;9.63;1.80;;;;;;;;;;4957317;29;20118;-78
2023/03/26 02:09:48;;;;;;;10.27;2.05;;;;;;;;;;4958101;29;20027;-78
2023/03/26 02:12:15;;;;;;;10.60;1.73;;;;;;;;;;4958309;29;20054;-77
2023/03/26 02:14:42;;;;;;;8.63;1.75;;;;;;;;;;4940476;29;20179;-78
2023/03/26 02:17:09;;;;;;;13.60;2.60;;;;;;;;;;4957497;29;20083;-78
2023/03/26 02:19:36;;;;;;;9.52;2.47;;;;;;;;;;4940114;29;20114;-78
2023/03/26 02:22:02;;;;;;;15.60;2.28;;;;;;;;;;4957147;29;20023;-78
2023/03/26 02:24:28;;;;;;;12.77;2.22;;;;;;;;;;4957677;29;20031;-78
2023/03/26 02:26:54;;;;;;;13.45;2.05;;;;;;;;;;4956843;29;20031;-78
2023/03/26 02:29:21;;;;;;;13.60;2.17;;;;;;;;;;4957424;29;20027;-78
2023/03/26 02:31:47;;;;;;;11.55;1.65;;;;;;;;;;4956966;29;20023;-77
2023/03/26 02:34:13;;;;;;;14.38;2.88;;;;;;;;;;4956723;29;20019;-77
2023/03/26 02:36:41;;;;;;;10.05;1.80;;;;;;;;;;4939418;29;20127;-77
2023/03/26 02:39:08;;;;;;;12.60;2.55;;;;;;;;;;4956869;29;20035;-78
2023/03/26 02:41:34;;;;;;;8.77;1.75;;;;;;;;;;4956859;29;20077;-78
2023/03/26 02:44:00;;;;;;;12.48;2.15;;;;;;;;;;4957248;29;20031;-78
2023/03/26 02:46:29;;;;;;;13.48;1.90;;;;;;;;;;4939875;29;20032;-78
2023/03/26 02:49:26;;;;;;;12.05;2.35;;;;;;;;;;4957139;29;20042;-78
2023/03/26 02:51:55;;;;;;;7.70;1.80;;;;;;;;;;4940005;29;20043;-78
2023/03/26 02:54:21;;;;;;;10.15;2.80;;;;;;;;;;4957316;29;20023;-78
2023/03/26 02:56:47;;;;;;;12.65;1.90;;;;;;;;;;4957207;29;20027;-78
2023/03/26 02:59:13;;;;;;;14.18;2.05;;;;;;;;;;4957468;29;20171;-78
2023/03/26 03:01:42;;;;;;;14.27;1.85;;;;;;;;;;4957237;29;20110;-78
2023/03/26 03:04:09;;;;;;;11.50;2.08;;;;;;;;;;4956858;28;20032;-78
2023/03/26 03:06:37;;;;;;;14.77;2.28;;;;;;;;;;4956883;29;20119;-78
2023/03/26 03:09:03;;;;;;;10.07;2.00;;;;;;;;;;4957312;29;20023;-78
2023/03/26 03:11:30;;;;;;;13.88;2.60;;;;;;;;;;4939962;29;20042;-78
2023/03/26 03:13:56;;;;;;;12.68;1.52;;;;;;;;;;4958751;29;20429;-78
2023/03/26 03:16:22;;;;;;;17.17;2.55;;;;;;;;;;4959808;29;20113;-78
2023/03/26 03:18:53;;;;;;;12.15;2.25;;;;;;;;;;4957340;29;20027;-78
2023/03/26 03:21:19;;;;;;;;;;;;;;;;;;4960942;29;20023;-78
2023/03/26 03:23:44;;;;;;;10.60;1.63;;;;;;;;;;4958902;29;19913;-77
2023/03/26 03:26:14;;;;;;;16.95;2.45;;;;;;;;;;4956027;29;20397;-78
2023/03/26 03:28:41;;;;;;;5.65;1.88;;;;;;;;;;4956454;29;20482;-78
2023/03/26 03:31:17;;;;;;;13.32;2.10;;;;;;;;;;4938983;29;20386;-78
2023/03/26 03:33:45;;;;;;;10.40;1.77;;;;;;;;;;4955774;29;20031;-77
2023/03/26 03:36:11;;;;;;;9.20;1.42;;;;;;;;;;4955821;29;20114;-77
2023/03/26 03:38:38;;;;;;;13.88;2.53;;;;;;;;;;4955644;29;20059;-78
2023/03/26 03:41:04;;;;;;;15.75;2.33;;;;;;;;;;4955947;29;20031;-78
2023/03/26 03:43:31;;;;;;;14.63;2.05;;;;;;;;;;4955945;29;20034;-78
2023/03/26 03:45:57;;;;;;;11.07;1.83;;;;;;;;;;4954942;29;20168;-78
2023/03/26 03:48:23;;;;;;;8.85;1.70;;;;;;;;;;4955550;29;20055;-78
2023/03/26 03:50:49;;;;;;;8.55;1.98;;;;;;;;;;4938721;29;20027;-78
2023/03/26 03:53:17;;;;;;;10.43;1.85;;;;;;;;;;4956032;29;20027;-78
2023/03/26 03:55:51;;;;;;;14.07;1.90;;;;;;;;;;4955468;29;20034;-78
2023/03/26 03:58:20;;;;;;;10.98;2.17;;;;;;;;;;4956227;29;20479;-78
2023/03/26 04:00:47;;;;;;;13.05;2.00;;;;;;;;;;4938522;29;20027;-77
2023/03/26 04:03:13;;;;;;;14.00;1.50;;;;;;;;;;4955519;29;20063;-78
2023/03/26 04:05:39;;;;;;;9.57;1.80;;;;;;;;;;4955371;29;20031;-78
2023/03/26 04:08:05;;;;;;;16.10;2.42;;;;;;;;;;4938445;29;20039;-78
2023/03/26 04:10:31;;;;;;;10.98;2.00;;;;;;;;;;4955863;29;20027;-77
2023/03/26 04:12:57;;;;;;;8.13;2.20;;;;;;;;;;4955650;29;20027;-78
2023/03/26 04:18:29;;;;;;;10.10;1.95;;;;;;;;;;4959424;29;20118;-78
2023/03/26 04:20:55;;;;;;;10.50;2.10;;;;;;;;;;4958960;29;20024;-78
2023/03/26 04:23:22;;;;;;;10.20;1.73;;;;;;;;;;4959104;29;20155;-78
2023/03/26 04:25:49;;;;;;;12.35;1.92;;;;;;;;;;4958437;29;20370;-77
2023/03/26 04:28:25;;;;;;;13.60;2.00;;;;;;;;;;4958705;29;20462;-78
2023/03/26 04:30:52;;;;;;;11.32;2.20;;;;;;;;;;4959197;29;20118;-78
2023/03/26 04:33:19;;;;;;;10.57;2.08;;;;;;;;;;4958653;29;20019;-77
2023/03/26 04:35:47;;;;;;;14.15;1.88;;;;;;;;;;4941046;29;20032;-77
2023/03/26 04:38:15;;;;;;;11.18;1.70;;;;;;;;;;4958387;29;20079;-78
2023/03/26 04:40:42;;;;;;;9.70;1.63;;;;;;;;;;4959353;29;20458;-78
2023/03/26 04:43:11;;;;;;;10.93;1.63;;;;;;;;;;4958966;29;20071;-78
2023/03/26 04:45:38;;;;;;;11.65;1.90;;;;;;;;;;4958070;29;20059;-78
2023/03/26 04:48:07;;;;;;;9.32;1.70;;;;;;;;;;4958871;29;20032;-78
2023/03/26 04:50:33;;;;;;;10.30;2.15;;;;;;;;;;4958708;29;20024;-78
2023/03/26 04:52:59;;;;;;;11.05;1.95;;;;;;;;;;4958194;29;20034;-78
2023/03/26 04:55:29;;;;;;;14.23;2.03;;;;;;;;;;4958374;29;20446;-78
2023/03/26 04:57:56;;;;;;;10.10;2.10;;;;;;;;;;4958177;29;20170;-77
2023/03/26 05:00:34;;;;;;;13.15;2.83;;;;;;;;;;4957916;29;20067;-78
2023/03/26 05:03:00;;;;;;;10.85;1.45;;;;;;;;;;4941141;29;20602;-78
2023/03/26 05:05:27;;;;;;;10.50;1.88;;;;;;;;;;4958052;29;20151;-77
2023/03/26 05:07:53;;;;;;;6.88;1.88;;;;;;;;;;4958034;29;20054;-78
2023/03/26 05:10:20;;;;;;;12.77;2.17;;;;;;;;;;4957834;29;20462;-77
2023/03/26 05:12:46;;;;;;;14.30;1.92;;;;;;;;;;4957761;29;20127;-78
2023/03/26 05:15:14;;;;;;;7.20;1.90;;;;;;;;;;4958184;29;20059;-77
2023/03/26 05:17:40;;;;;;;11.00;1.42;;;;;;;;;;4958203;29;20557;-78
2023/03/26 05:20:07;;;;;;;8.18;1.48;;;;;;;;;;4958275;29;20028;-78
2023/03/26 05:22:33;;;;;;;10.93;1.63;;;;;;;;;;4958103;29;20023;-77
2023/03/26 05:24:59;;;;;;;6.80;1.13;;;;;;;;;;4957985;29;20101;-78
2023/03/26 05:27:25;;;;;;;8.82;1.75;;;;;;;;;;4957952;28;20038;-78
2023/03/26 05:29:51;;;;;;;10.32;1.83;;;;;;;;;;4957519;29;20027;-77
2023/03/26 05:32:17;;;;;;;9.80;1.65;;;;;;;;;;4957249;29;20078;-78
2023/03/26 05:34:43;;;;;;;11.23;2.05;;;;;;;;;;4957285;29;20031;-77
2023/03/26 05:37:09;;;;;;;13.60;1.85;;;;;;;;;;4957219;29;20031;-78
2023/03/26 05:39:35;;;;;;;7.60;1.88;;;;;;;;;;4957533;29;20699;-77
2023/03/26 05:42:20;;;;;;;8.02;1.92;;;;;;;;;;4958111;29;20030;-78
2023/03/26 05:44:46;;;;;;;12.63;1.90;;;;;;;;;;4956502;29;20055;-78
2023/03/26 05:47:12;;;;;;;11.70;1.75;;;;;;;;;;4957848;29;20054;-78
2023/03/26 05:49:38;;;;;;;5.90;1.83;;;;;;;;;;4957702;29;20163;-78
2023/03/26 05:52:04;;;;;;;11.27;1.88;;;;;;;;;;4957687;29;20038;-78
2023/03/26 05:54:30;;;;;;;10.60;1.70;;;;;;;;;;4957783;29;20027;-78
2023/03/26 05:56:56;;;;;;;8.48;1.92;;;;;;;;;;4956986;29;20030;-78
2023/03/26 05:59:23;;;;;;;10.63;2.30;;;;;;;;;;4948032;29;20079;-78
2023/03/26 06:01:49;;;;;;;13.48;1.98;;;;;;;;;;4957704;29;20020;-78
2023/03/26 06:04:16;;;;;;;24.08;3.90;;;;;;;;;;4957055;29;20525;-78
2023/03/26 06:06:43;;;;;;;12.13;1.90;;;;;;;;;;4957279;29;20039;-79
2023/03/26 06:09:12;;;;;;;10.65;1.60;;;;;;;;;;4957930;29;20110;-78
2023/03/26 06:11:38;;;;;;;14.93;2.17;;;;;;;;;;4955244;29;20022;-78
2023/03/26 06:14:04;;;;;;;8.73;1.90;;;;;;;;;;4937560;29;20020;-78
2023/03/26 06:16:30;;;;;;;6.88;1.25;;;;;;;;;;4940063;29;20422;-78
2023/03/26 06:18:57;;;;;;;11.50;2.08;;;;;;;;;;4943664;29;20050;-78
2023/03/26 06:21:23;;;;;;;9.10;1.60;;;;;;;;;;4957811;29;20027;-78
2023/03/26 06:23:50;;;;;;;6.75;1.55;;;;;;;;;;4947454;29;20059;-79
2023/03/26 06:26:16;;;;;;;7.35;1.55;;;;;;;;;;4951155;29;20143;-78
2023/03/26 06:28:42;;;;;;;7.22;1.50;;;;;;;;;;4939280;29;20125;-78
2023/03/26 06:31:08;;;;;;;8.13;1.23;;;;;;;;;;4939585;29;20131;-78
2023/03/26 06:33:34;;;;;;;15.05;1.52;;;;;;;;;;4956812;29;20027;-78
2023/03/26 06:36:00;;;;;;;13.38;1.40;;;;;;;;;;4957141;29;20035;-78
2023/03/26 06:38:26;;;;;;;11.23;1.60;;;;;;;;;;4938714;29;20024;-78
2023/03/26 06:40:52;;;;;;;13.02;1.60;;;;;;;;;;4956587;29;20034;-78
2023/03/26 06:43:18;;;;;;;7.15;1.17;;;;;;;;;;4957302;29;20027;-78
2023/03/26 06:45:44;;;;;;;10.88;2.03;;;;;;;;;;4955136;29;20074;-78
2023/03/26 06:48:10;;;;;;;10.98;1.73;;;;;;;;;;4956687;29;20360;-78
2023/03/26 06:50:36;;;;;;;6.53;1.00;;;;;;;;;;4955957;29;20035;-78
2023/03/26 06:53:02;;;;;;;18.35;1.60;;;;;;;;;;4956345;29;20035;-78
2023/03/26 06:55:28;;;;;;;14.15;1.75;;;;;;;;;;4956960;29;20029;-78
2023/03/26 06:57:56;;;;;;;5.00;1.17;;;;;;;;;;4956702;29;20027;-78
2023/03/26 07:00:45;;;;;;;14.25;1.70;;;;;;;;;;4956373;29;20533;-78
2023/03/26 07:03:11;;;;;;;7.10;1.48;;;;;;;;;;4956643;29;20031;-78
2023/03/26 07:05:40;;;;;;;13.85;2.05;;;;;;;;;;4956123;29;20047;-78
2023/03/26 07:08:06;;;;;;;6.72;0.85;;;;;;;;;;4956027;29;20063;-78
2023/03/26 07:10:32;;;;;;;10.10;1.55;;;;;;;;;;4956667;29;20031;-78
2023/03/26 07:12:58;;;;;;;8.93;1.58;;;;;;;;;;4955710;29;20034;-78
2023/03/26 07:15:24;;;;;;;14.18;1.15;;;;;;;;;;4955452;29;20023;-78
2023/03/26 07:17:50;;;;;;;7.80;1.55;;;;;;;;;;4955402;29;20035;-78
2023/03/26 07:20:16;;;;;;;9.98;1.85;;;;;;;;;;4955651;29;20054;-78
2023/03/26 07:22:42;;;;;;;7.80;1.17;;;;;;;;;;4955801;29;20027;-78
2023/03/26 07:25:08;;;;;;;8.85;2.22;;;;;;;;;;4931782;29;20032;-78
2023/03/26 07:27:37;;;;;;;8.38;2.55;;;;;;;;;;4936553;29;20498;-78
2023/03/26 07:30:05;;;;;;;8.48;1.23;;;;;;;;;;4936987;29;20046;-78
2023/03/26 07:32:34;;;;;;;5.68;1.08;;;;;;;;;;4936558;29;20362;-79
2023/03/26 07:35:06;;;;;;;7.57;1.30;;;;;;;;;;4936718;29;20024;-77
2023/03/26 07:37:38;;;;;;;6.85;1.85;;;;;;;;;;4940104;29;20028;-78
2023/03/26 07:40:12;;;;;;;12.00;2.42;;;;;;;;;;4948676;29;20024;-78
2023/03/26 07:42:49;;;;;;;16.20;1.90;;;;;;;;;;4947908;29;20023;-78
2023/03/26 07:45:15;;;;;;;9.90;1.55;;;;;;;;;;4949044;29;20063;-78
2023/03/26 07:47:58;;;;;;;7.25;1.13;;;;;;;;;;4955937;29;20055;-78
2023/03/26 07:50:24;;;;;;;3.40;0.88;;;;;;;;;;4954450;28;20067;-78
2023/03/26 07:52:52;;;;;;;9.45;1.20;;;;;;;;;;4940581;29;20059;-78
2023/03/26 07:55:18;;;;;;;6.90;1.27;;;;;;;;;;4942334;29;20098;-80
2023/03/26 07:57:58;;;;;;;11.30;1.70;;;;;;;;;;4940739;29;20164;-79
2023/03/26 08:00:30;;;;;;;12.55;1.75;;;;;;;;;;4945932;29;20042;-79
2023/03/26 08:02:56;;;;;;;6.25;0.98;;;;;;;;;;4933276;29;20039;-79
2023/03/26 08:05:31;;;;;;;4.22;0.95;;;;;;;;;;4948710;29;20038;-79
2023/03/26 08:08:16;;;;;;;8.90;1.02;;;;;;;;;;4944432;29;20422;-79
2023/03/26 08:10:42;;;;;;;10.95;2.88;;;;;;;;;;4945067;29;20175;-79
2023/03/26 08:13:46;;;;;;;6.90;1.15;;;;;;;;;;4960332;29;20055;-79
2023/03/26 08:16:47;;;;;;;12.27;1.80;;;;;;;;;;4882994;29;20076;-79
2023/03/26 08:19:32;;;;;;;10.05;1.02;;;;;;;;;;4845493;29;20122;-79
2023/03/26 08:22:01;;;;;;;6.03;1.55;;;;;;;;;;4944818;29;20059;-79
2023/03/26 08:24:36;;;;;;;8.13;1.33;;;;;;;;;;4952735;29;20032;-79
2023/03/26 08:27:02;;;;;;;7.85;1.17;;;;;;;;;;4941043;29;20039;-79
2023/03/26 08:29:40;;;;;;;10.20;1.08;;;;;;;;;;4939694;29;20391;-79
2023/03/26 08:32:13;;;;;;;6.60;1.30;;;;;;;;;;4941020;29;20030;-79
2023/03/26 08:34:39;;;;;;;4.63;1.02;;;;;;;;;;4940874;29;20110;-79
2023/03/26 08:37:05;;;;;;;7.25;1.48;;;;;;;;;;4943402;29;20033;-79
2023/03/26 08:39:31;;;;;;;9.50;1.13;;;;;;;;;;4941071;29;20110;-79
2023/03/26 08:42:10;;;;;;;11.95;1.50;;;;;;;;;;4941365;29;20042;-79
2023/03/26 08:44:46;;;;;;;9.90;1.67;;;;;;;;;;4938272;29;20032;-80
2023/03/26 08:47:27;;;;;;;4.90;0.95;;;;;;;;;;4940043;29;20036;-79
2023/03/26 08:50:09;;;;;;;6.32;1.30;;;;;;;;;;4943012;29;20415;-79
2023/03/26 08:52:35;;;;;;;5.72;1.23;;;;;;;;;;4941581;29;20035;-79
2023/03/26 08:55:19;;;;;;;4.90;1.30;;;;;;;;;;4942291;29;20023;-79
2023/03/26 08:58:04;;;;;;;6.57;1.00;;;;;;;;;;4941902;29;20067;-79
2023/03/26 09:00:30;;;;;;;3.03;0.80;;;;;;;;;;4937160;29;20491;-79
2023/03/26 09:03:11;;;;;;;4.43;0.98;;;;;;;;;;4939969;29;20103;-79
2023/03/26 09:05:55;;;;;;;6.45;1.00;;;;;;;;;;4944687;29;20676;-79
2023/03/26 09:08:37;;;;;;;5.00;1.05;;;;;;;;;;4938147;29;20119;-78
2023/03/26 09:11:21;;;;;;;7.15;0.90;;;;;;;;;;4938057;29;20626;-79
2023/03/26 09:14:13;;;;;;;6.10;1.00;;;;;;;;;;4943698;29;20140;-79
2023/03/26 09:16:57;;;;;;;2.25;0.95;;;;;;;;;;4938128;29;20028;-78
2023/03/26 09:19:29;;;;;;;3.55;0.60;;;;;;;;;;4937833;29;20036;-78
2023/03/26 09:21:58;;;;;;;4.72;1.00;;;;;;;;;;4938126;29;20032;-79
2023/03/26 09:24:30;;;;;;;7.40;1.25;;;;;;;;;;4937807;29;20031;-78
2023/03/26 09:27:17;;;;;;;6.72;1.02;;;;;;;;;;4937740;29;20036;-78
2023/03/26 09:30:02;;;;;;;4.10;0.85;;;;;;;;;;4938358;29;20036;-79
2023/03/26 09:32:42;;;;;;;2.80;0.50;;;;;;;;;;4937669;29;20122;-78
2023/03/26 09:35:27;;;;;;;5.68;1.02;;;;;;;;;;4936592;29;20050;-78
2023/03/26 09:37:56;;;;;;;5.38;0.80;;;;;;;;;;4937498;29;20036;-79
2023/03/26 09:40:36;;;;;;;3.55;0.63;;;;;;;;;;4938003;29;20458;-79
2023/03/26 09:43:19;;;;;;;6.75;1.10;;;;;;;;;;4938419;29;20028;-79
2023/03/26 09:46:15;;;;;;;5.10;0.80;;;;;;;;;;4937315;29;20060;-79
2023/03/26 09:48:59;;;;;;;8.10;1.00;;;;;;;;;;4924997;29;20534;-79
2023/03/26 09:51:40;;;;;;;5.68;0.90;;;;;;;;;;4936375;29;20110;-79
2023/03/26 09:54:06;;;;;;;;;;;;;;;;;;4937986;29;20028;-79
2023/03/26 09:56:48;;;;;;;3.72;0.80;;;;;;;;;;4937194;29;19957;-79
2023/03/26 09:59:39;;;;;;;4.65;0.80;;;;;;;;;;4951621;29;20394;-79
2023/03/26 10:02:11;;;;;;;3.13;0.75;;;;;;;;;;4924820;29;20086;-80
2023/03/26 10:08:03;;;;;;;4.40;0.80;;;;;;;;;;4937843;29;20095;-79
2023/03/26 10:10:32;;;;;;;5.13;1.55;;;;;;;;;;4929811;29;20050;-79
2023/03/26 10:13:05;;;;;;;8.18;0.95;;;;;;;;;;4936974;29;20071;-79
2023/03/26 10:15:43;;;;;;;4.57;0.98;;;;;;;;;;4936978;29;20063;-79
2023/03/26 10:18:15;;;;;;;13.52;2.28;;;;;;;;;;4938327;29;20023;-79
2023/03/26 10:20:50;;;;;;;5.75;1.38;;;;;;;;;;4956439;29;20023;-79
2023/03/26 10:23:19;;;;;;;3.15;0.80;;;;;;;;;;4956140;29;20032;-79
2023/03/26 10:26:11;;;;;;;8.30;1.48;;;;;;;;;;4970814;28;20023;-79
2023/03/26 10:28:49;;;;;;;6.90;0.95;;;;;;;;;;4953138;29;20478;-79
2023/03/26 10:31:21;;;;;;;6.03;1.15;;;;;;;;;;4956064;29;20024;-79
2023/03/26 10:34:02;;;;;;;4.75;1.23;;;;;;;;;;4956815;29;20038;-79
2023/03/26 10:36:31;;;;;;;6.72;1.88;;;;;;;;;;4957745;29;20038;-78
2023/03/26 10:39:07;;;;;;;5.78;0.70;;;;;;;;;;4955837;29;20035;-79
2023/03/26 10:41:53;;;;;;;3.38;0.82;;;;;;;;;;4959076;29;20027;-80
2023/03/26 10:44:22;;;;;;;3.50;0.70;;;;;;;;;;4955862;29;20023;-80
2023/03/26 10:46:48;;;;;;;6.15;1.15;;;;;;;;;;4955500;29;20467;-79
2023/03/26 10:49:14;;;;;;;4.32;1.52;;;;;;;;;;4970751;28;20110;-79
2023/03/26 10:51:40;;;;;;;4.90;0.80;;;;;;;;;;4956185;29;20031;-79
2023/03/26 10:54:22;;;;;;;2.92;0.85;;;;;;;;;;4955611;29;20031;-79
2023/03/26 10:56:49;;;;;;;2.83;0.93;;;;;;;;;;4956414;29;20019;-79
2023/03/26 10:59:15;;;;;;;7.10;1.35;;;;;;;;;;4956125;29;20455;-79
2023/03/26 11:01:46;;;;;;;5.30;0.70;;;;;;;;;;4954483;29;20463;-79
2023/03/26 11:04:38;;;;;;;3.90;0.85;;;;;;;;;;4956468;29;20336;-79
2023/03/26 11:07:04;;;;;;;6.15;1.30;;;;;;;;;;4933421;29;20497;-79
2023/03/26 11:09:44;;;;;;;4.10;0.80;;;;;;;;;;4955546;29;20019;-79
2023/03/26 11:12:14;;;;;;;3.90;0.95;;;;;;;;;;4956397;29;20030;-79
2023/03/26 11:14:49;;;;;;;6.07;1.30;;;;;;;;;;4958043;29;20035;-79
2023/03/26 11:17:25;;;;;;;6.65;0.90;;;;;;;;;;4955169;29;20442;-79
2023/03/26 11:19:54;;;;;;;4.38;1.05;;;;;;;;;;4958196;29;20027;-80
2023/03/26 11:22:39;;;;;;;1.67;0.70;;;;;;;;;;4943387;29;20035;-80
2023/03/26 11:25:19;;;;;;;9.45;1.23;;;;;;;;;;4950563;29;20522;-80
2023/03/26 11:27:45;;;;;;;4.05;0.93;;;;;;;;;;4947312;29;20074;-80
2023/03/26 11:30:17;;;;;;;3.38;0.80;;;;;;;;;;4944689;29;20039;-80
2023/03/26 11:32:45;;;;;;;2.35;0.68;;;;;;;;;;4944002;29;20031;-79
2023/03/26 11:35:33;;;;;;;4.20;1.60;;;;;;;;;;4950630;29;20070;-80
2023/03/26 11:38:13;;;;;;;8.55;2.17;;;;;;;;;;4953285;28;20027;-79
2023/03/26 11:40:40;;;;;;;7.70;1.13;;;;;;;;;;4961252;29;20038;-79
2023/03/26 11:43:11;;;;;;;5.50;0.85;;;;;;;;;;4960117;29;20026;-80
2023/03/26 11:45:39;;;;;;;9.82;1.48;;;;;;;;;;4947561;29;20055;-80
2023/03/26 11:48:08;;;;;;;7.88;0.93;;;;;;;;;;4946233;29;20031;-79
2023/03/26 11:50:35;;;;;;;4.00;0.60;;;;;;;;;;4959533;29;20031;-79
2023/03/26 11:53:10;;;;;;;3.58;1.23;;;;;;;;;;4959473;29;20419;-80
2023/03/26 11:55:39;;;;;;;3.45;1.10;;;;;;;;;;4959881;29;20030;-79
2023/03/26 11:58:09;;;;;;;3.07;0.83;;;;;;;;;;4950426;28;20675;-79
2023/03/26 12:00:35;;;;;;;6.57;1.13;;;;;;;;;;4942737;29;20103;-79
2023/03/26 12:03:01;;;;;;;7.53;1.45;;;;;;;;;;4959152;29;20031;-79
2023/03/26 12:05:32;;;;;;;4.70;1.20;;;;;;;;;;4958034;29;20032;-79
2023/03/26 12:08:17;;;;;;;2.70;1.15;;;;;;;;;;4953938;29;20042;-79
2023/03/26 12:10:43;;;;;;;4.82;0.85;;;;;;;;;;4943175;29;20091;-79
2023/03/26 12:13:21;;;;;;;4.75;0.88;;;;;;;;;;4940928;29;20031;-79
2023/03/26 12:15:47;;;;;;;2.65;0.57;;;;;;;;;;4922835;29;20031;-79
2023/03/26 12:18:23;;;;;;;2.25;0.55;;;;;;;;;;4940544;29;20744;-80
2023/03/26 12:21:01;;;;;;;3.58;1.23;;;;;;;;;;4930785;29;20016;-80
2023/03/26 12:23:34;;;;;;;7.05;1.38;;;;;;;;;;4953170;29;20031;-80
2023/03/26 12:26:20;;;;;;;3.70;1.15;;;;;;;;;;4960693;29;20474;-80
2023/03/26 12:28:49;;;;;;;5.88;1.08;;;;;;;;;;4959897;29;20031;-80
2023/03/26 12:31:19;;;;;;;3.05;0.77;;;;;;;;;;4946594;29;20023;-79
2023/03/26 12:33:51;;;;;;;2.58;0.98;;;;;;;;;;4958458;29;20512;-78
2023/03/26 12:36:19;;;;;;;3.00;0.80;;;;;;;;;;4957821;28;20046;-78
2023/03/26 12:38:45;;;;;;;3.75;0.70;;;;;;;;;;4940622;29;20031;-79
2023/03/26 12:41:13;;;;;;;4.20;1.15;;;;;;;;;;4940594;29;20027;-78
2023/03/26 12:43:40;;;;;;;2.83;0.80;;;;;;;;;;4957932;29;20160;-79
2023/03/26 12:46:20;;;;;;;3.78;0.90;;;;;;;;;;4954643;29;20079;-79
2023/03/26 12:48:46;;;;;;;6.05;1.13;;;;;;;;;;4954498;29;20023;-78
2023/03/26 12:51:31;;;;;;;3.75;1.15;;;;;;;;;;4958006;29;20170;-79
2023/03/26 12:54:16;;;;;;;5.53;0.77;;;;;;;;;;4957884;29;20394;-78
2023/03/26 12:57:03;;;;;;;5.05;0.73;;;;;;;;;;4957849;29;20028;-79
2023/03/26 12:59:46;;;;;;;2.50;0.77;;;;;;;;;;4957838;29;20023;-79
2023/03/26 13:02:28;;;;;;;6.72;0.95;;;;;;;;;;4959561;28;20158;-79
2023/03/26 13:05:06;;;;;;;6.95;1.10;;;;;;;;;;4958660;29;20584;-79
2023/03/26 13:07:44;;;;;;;1.38;0.60;;;;;;;;;;4957761;29;20415;-79
2023/03/26 13:10:23;;;;;;;2.80;0.75;;;;;;;;;;4959777;29;20058;-79
2023/03/26 13:12:55;;;;;;;1.77;0.70;;;;;;;;;;4958131;29;20055;-79
2023/03/26 13:15:24;;;;;;;2.75;0.63;;;;;;;;;;4941585;29;20087;-79
2023/03/26 13:17:55;;;;;;;2.20;0.55;;;;;;;;;;4940897;29;20031;-79
2023/03/26 13:20:31;;;;;;;3.80;1.00;;;;;;;;;;4940332;29;20051;-79
2023/03/26 13:23:11;;;;;;;3.38;0.57;;;;;;;;;;4941995;29;20078;-78
2023/03/26 13:25:51;;;;;;;8.88;0.75;;;;;;;;;;4957983;29;20751;-79
2023/03/26 13:28:25;;;;;;;4.60;0.90;;;;;;;;;;4958775;29;20082;-78
2023/03/26 13:31:06;;;;;;;5.00;0.77;;;;;;;;;;4958937;29;20027;-79
2023/03/26 13:33:41;;;;;;;4.10;0.40;;;;;;;;;;4958268;29;20020;-78
2023/03/26 13:36:22;;;;;;;2.40;0.60;;;;;;;;;;4959300;29;20059;-79
2023/03/26 13:38:50;;;;;;;2.78;0.70;;;;;;;;;;4959450;29;20035;-79
2023/03/26 13:41:28;;;;;;;2.95;1.17;;;;;;;;;;4959225;29;20051;-79
2023/03/26 13:44:03;;;;;;;1.42;0.77;;;;;;;;;;4960516;29;20035;-79
2023/03/26 13:46:38;;;;;;;3.40;0.57;;;;;;;;;;4959693;29;20051;-79
2023/03/26 13:49:14;;;;;;;2.78;0.90;;;;;;;;;;4940369;29;20027;-79
2023/03/26 13:51:40;;;;;;;7.75;0.98;;;;;;;;;;4957246;29;20032;-79
2023/03/26 13:54:06;;;;;;;9.10;1.55;;;;;;;;;;4959367;29;20558;-78
2023/03/26 13:56:38;;;;;;;2.30;0.73;;;;;;;;;;4956585;29;20034;-80
2023/03/26 13:59:12;;;;;;;2.90;0.90;;;;;;;;;;4959214;29;20043;-80
2023/03/26 14:01:42;;;;;;;3.70;0.60;;;;;;;;;;4958887;29;20119;-80
2023/03/26 14:04:24;;;;;;;2.60;0.65;;;;;;;;;;4944091;29;20023;-80
2023/03/26 14:06:56;;;;;;;2.05;0.73;;;;;;;;;;4956698;29;20038;-80
2023/03/26 14:09:29;;;;;;;4.70;0.57;;;;;;;;;;4959617;29;20019;-80
2023/03/26 14:11:58;;;;;;;4.78;0.90;;;;;;;;;;4960475;29;20624;-80
2023/03/26 14:14:45;;;;;;;3.15;0.50;;;;;;;;;;4961890;29;20223;-80
2023/03/26 14:17:30;;;;;;;4.40;1.00;;;;;;;;;;4962287;29;20031;-81
2023/03/26 14:20:14;;;;;;;2.63;0.80;;;;;;;;;;4959731;28;20032;-80
2023/03/26 14:22:49;;;;;;;4.20;1.73;;;;;;;;;;4957739;29;20035;-78
2023/03/26 14:25:18;;;;;;;2.47;1.83;;;;;;;;;;4958589;29;20015;-78
2023/03/26 14:27:51;;;;;;;6.80;2.20;;;;;;;;;;4955435;29;20126;-79
2023/03/26 14:30:17;;;;;;;10.35;4.45;;;;;;;;;;4945389;29;20035;-79
2023/03/26 14:33:03;;;;;;;10.25;4.10;;;;;;;;;;4957202;29;20031;-79
2023/03/26 14:35:36;;;;;;;3.97;2.55;;;;;;;;;;4957502;29;20024;-79
2023/03/26 14:38:13;;;;;;;4.68;1.70;;;;;;;;;;4957651;29;20138;-78
2023/03/26 14:40:47;;;;;;;3.15;0.88;;;;;;;;;;4957242;29;20394;-78
2023/03/26 14:43:20;;;;;;;4.15;1.30;;;;;;;;;;4958137;29;20035;-79
2023/03/26 14:46:04;;;;;;;4.18;0.98;;;;;;;;;;4957501;28;20074;-79
2023/03/26 14:48:33;;;;;;;3.55;0.77;;;;;;;;;;4956605;29;20031;-78
2023/03/26 14:51:14;;;;;;;3.45;0.85;;;;;;;;;;4956219;29;20023;-79
2023/03/26 14:53:42;;;;;;;3.97;1.15;;;;;;;;;;4940013;29;20530;-79
2023/03/26 14:56:16;;;;;;;3.50;0.63;;;;;;;;;;4958279;29;20027;-79
2023/03/26 14:59:01;;;;;;;3.13;0.82;;;;;;;;;;4956698;29;20042;-80
2023/03/26 15:01:28;;;;;;;7.15;1.20;;;;;;;;;;4957293;29;20027;-79
2023/03/26 15:04:13;;;;;;;2.80;0.70;;;;;;;;;;4957874;29;20474;-77
2023/03/26 15:06:51;;;;;;;5.35;0.70;;;;;;;;;;4955608;29;20648;-78
2023/03/26 15:09:27;;;;;;;5.32;0.90;;;;;;;;;;4955830;29;20487;-78
2023/03/26 15:12:02;;;;;;;2.85;0.60;;;;;;;;;;4938356;29;20038;-78